臺北飛航情報區 - 掃描席(區管/近場)

METAR RCTP 040130Z 06016KT 9999 FEW008 BKN015 BKN030 18/16 Q1020 NOSIG RMK A3014(R)=

站台狀態:Online
最後更新:2020-04-04 09:30:02